Argyle, NY

10:39 PM EDT on August 22, 2014 (GMT -0400)
Village of Argyle | Change Station
CLOSE
Current Station
Personal Weather Station
Location: Argyle, NY
Elevation: 283 ft
Nearby Weather Stations

Elev 283 ft 43.24 °N, 73.49 °W | Updated 18 seconds ago

Overcast
Overcast
62.6 °F
Feels Like 62.6 °F
N
0.0
Wind Variable Wind from North

Today
High -- | Low -- °F
--% Chance of Precip.
Yesterday
High -- | Low -- °F
Precip. -- in
6:06 AM 7:45 PM
Waning Crescent, 6% visible
Pressure 30.11 in
Visibility 10.0 miles
Clouds Mostly Cloudy 2400 ft
Overcast 4700 ft
Dew Point 62 °F
Humidity 96%
Rainfall 0.12 in
Snow Depth Not available.
UV 0.0 out of 12
Pollen 3.80 out of 12
Ozone Good
PM2.5 Good
Flu Activity Not available.
SPECI KDDH 230212Z AUTO 00000KT 10SM BKN024 OVC047 18/14 A3011 RMK AO2 T01780144

More Conditions Fewer Conditions

Pressure 30.11 in
Visibility 10.0 miles
Clouds Mostly Cloudy 2400 ft
Overcast 4700 ft
Dew Point 62 °F
Humidity 96%
Rainfall 0.12 in
Snow Depth Not available.
UV 0.0 out of 12
Pollen 3.80 out of 12
Ozone Good
PM2.5 Good
Flu Activity Not available.
SPECI KDDH 230212Z AUTO 00000KT 10SM BKN024 OVC047 18/14 A3011 RMK AO2 T01780144

More Conditions Fewer Conditions

10-Day Weather Forecast

Almanac

Astronomy

Aug. 22, 2014 Rise Set
Actual Time 6:06 AM EDT 7:45 PM EDT
Civil Twilight 5:36 AM EDT 8:15 PM EDT
Nautical Twilight 5:00 AM EDT 8:52 PM EDT
Astronomical Twilight 4:20 AM EDT 9:31 PM EDT
Moon 3:25 AM EDT (8/22) 5:53 PM EDT (8/22)
Length of Visible Light 14h 38m
Length of Day
13h 38m
Tomorrow will be 2m 44s shorter.
Waning Crescent, 6% of the Moon is Illuminated
Today
Waning Crescent
Aug 25
New
Sep 2
First Quarter
Sep 8
Full
Sep 15
Last Quarter

Today's Extremes

State Highs State Lows

Community

WunderPhotos

Upload Photos

1,746,346 photos uploaded!

WunderBlogs® & News

Nearby

Air Quality

  Air Quality AQ Index Pollutant
Yesterday Good
OZONE
Yesterday Good
PM2.5
Current Good
PM2.5
Current Good
OZONE
Friday Good
OZONE
Friday Good
PM2.5
Saturday Good
OZONE
Saturday Good
PM2.5
Sunday Good
OZONE
Sunday Good
PM2.5
Monday Good
PM2.5
Monday Good
OZONE

Snow Depth

Station Depth Elevation
No new snow has been reported.

Earthquake Activity

City Distance Mag. Time & Date
No recent earthquake activity has been reported nearby.
Minimum magnitude displayed is 2.5.

Coastal Water Temperatures

Place Temperature
No Stations Reporting

Nearby Weather Stations